Terminal Aerodrome Forecast
Issued by NWS

Home | Current Version | Previous Version | Text Only | Print | Product List | Glossary On
Versions: 1 2 3 4 5 6 7 8 9 10 11 12 13
000
FTUS43 KGLD 151503 AAA
TAFMCK
TAF AMD
KMCK 151503Z 1515/1612 33015G25KT P6SM SKC
     FM152300 32014KT P6SM SKC
     FM160300 31008KT P6SM SKC=

USA.gov is the U.S. government's official web portal to all federal, state and local government web resources and services.